Rejestracja

Wszystkie dane podawane są w czasie UTC za wyjątkiem miejsc gdzie jest jednoznacznie podane, że jest inaczej. Dane podawane w serwisie mają charakter informacyjny!!!
Informacje w sprawie dostępu do serwisu pod numerem tel. +48 261-828-559 lub +48 261-828-138
Informacja dla żołnierzy i pracowników wojska: Prosimy o niezwłoczną zmianę adresu e-mail w profilu użytkownika na pocztę w domenie @ron.mil.pl
Brak służbowego adresu e-mail skutkuje usunięciem konta.

Aktualna Pogoda
 
Pogoda w Polsce
4°C Szczecin 2°C Suwałki 3°C Warszawa 4°C Poznan
4°C Opole 3°C Kraków 1°C Rzeszów
Więcej miast w Polsce

Pogoda w Europie
6°C Berlin 9°C Paryz 3°C Bruksela 4°C Oslo
6°C Praga 12°C Zagrzeb
Więcej miast w Europie

Metary wojskowe test
METAR EPCE 230000Z 25006KT 9999 OVC061 01/M01 Q1015 RMK 007 085 8/8=
METAR EPDA 230000Z 28010KT 240V310 9999 BKN079 06/02 Q1016 RMK 057 078 6/6=
METAR EPDE 230000Z AUTO 22004KT 9999 02/M01 Q1018 RMK 019 083 ///=
METAR EPIR 230000Z AUTO 25010KT VV063 03/M03 Q1018 RMK 028 066 ///=
METAR EPKS 230000Z 27008KT CAVOK 04/03 Q1019 RMK 037 096 5/5=
METAR EPLK 230000Z 27006KT CAVOK 01/01 Q1018 RMK 013 100 2/2=
METAR EPLY 230000Z AUTO 24004KT 02/M00 Q1018 RMK 020 085 ///=
METAR EPMB 230000Z AUTO 28011KT 9999 OVC072/// 04/02 Q1015 RMK 042 085 8/8=
METAR EPMI 230000Z 24007KT CAVOK 02/M01 Q1018 RMK 015 083 0/0=
METAR EPMM 230000Z 27009KT 240V300 9999 SCT070 03/02 Q1016 RMK 025 096 3/3=
METAR EPNA 222200Z 28006KT CAVOK 01/M03 Q1017 RMK 010 071 0/0=
METAR EPOK 230000Z 28009KT 9999 OVC068 03/M00 Q1015 RMK 029 080 8/8=
METAR EPPR 230000Z AUTO 25010KT ///056 ///065 03/M02 Q1016 RMK 031 070 ///=
METAR EPPW 230000Z 29004KT CAVOK 01/01 Q1018 RMK 006 100 4/4=
METAR EPSN 230000Z 25006KT CAVOK 01/M03 Q1017 RMK 010 072 0/0=
METAR EPTM 230000Z 23004KT 9999 SCT060 02/M01 Q1018 RMK 023 076 3/3=


 

Prawa autorskie©2007 SSH SZ RP. Wszelkie prawa zastrzeżone.